Time;durP1;ratioP1;P1;durP2;ratioP2;P2;SDS_P1;SDS_P2;PMS_P1;PMS_P2;Temp;Humidity;BMP_temperature;BMP_pressure;BME280_temperature;BME280_humidity;BME280_pressure;Samples;Min_cycle;Max_cycle;Signal;HPM_P1;HPM_P2
2021/06/22 00:00:33;;;;;;;5.10;3.03;;;15.30;99.90;;;;;;5024511;28;20217;-73
2021/06/22 00:02:59;;;;;;;6.25;3.40;;;15.30;99.90;;;;;;5025436;28;20237;-73
2021/06/22 00:05:26;;;;;;;5.13;3.28;;;15.30;99.90;;;;;;5023513;28;20625;-73
2021/06/22 00:07:54;;;;;;;3.90;3.08;;;15.30;99.90;;;;;;5023348;28;20252;-73
2021/06/22 00:10:23;;;;;;;8.80;3.20;;;15.30;99.90;;;;;;5024863;28;20224;-73
2021/06/22 00:12:49;;;;;;;9.60;3.40;;;15.20;99.90;;;;;;5024117;28;20260;-73
2021/06/22 00:15:17;;;;;;;4.10;2.90;;;15.20;99.90;;;;;;5023359;28;20210;-73
2021/06/22 00:17:43;;;;;;;6.60;2.97;;;15.20;99.90;;;;;;5024031;28;20206;-73
2021/06/22 00:20:11;;;;;;;7.47;3.28;;;15.20;99.90;;;;;;5024765;28;20198;-73
2021/06/22 00:22:41;;;;;;;6.38;3.22;;;15.10;99.90;;;;;;5024335;28;20190;-72
2021/06/22 00:25:09;;;;;;;6.30;3.40;;;15.10;99.90;;;;;;5023499;28;20201;-73
2021/06/22 00:27:35;;;;;;;8.77;3.03;;;15.10;99.90;;;;;;5025367;28;20656;-72
2021/06/22 00:30:01;;;;;;;6.18;2.83;;;15.10;99.90;;;;;;5024432;28;20225;-72
2021/06/22 00:32:27;;;;;;;7.00;2.88;;;15.20;99.90;;;;;;5023548;28;20692;-72
2021/06/22 00:34:52;;;;;;;5.75;2.80;;;15.20;99.90;;;;;;5023920;28;20198;-74
2021/06/22 00:37:18;;;;;;;5.85;3.00;;;15.20;99.90;;;;;;5024510;28;20282;-74
2021/06/22 00:39:45;;;;;;;5.97;3.10;;;15.20;99.90;;;;;;5040205;28;20601;-73
2021/06/22 00:42:13;;;;;;;6.97;3.08;;;15.20;99.90;;;;;;5024114;28;20215;-73
2021/06/22 00:44:54;;;;;;;5.78;3.35;;;15.20;99.90;;;;;;5024223;28;20288;-73
2021/06/22 00:47:21;;;;;;;7.53;3.40;;;15.20;99.90;;;;;;5023606;28;20629;-73
2021/06/22 00:49:49;;;;;;;4.45;2.97;;;15.20;99.90;;;;;;5024074;28;20251;-73
2021/06/22 00:52:25;;;;;;;5.53;2.95;;;15.20;99.90;;;;;;5026149;28;20241;-73
2021/06/22 00:54:51;;;;;;;5.35;3.45;;;15.10;99.90;;;;;;5022169;28;20225;-74
2021/06/22 00:57:18;;;;;;;5.72;3.33;;;15.10;99.90;;;;;;5022561;28;20214;-73
2021/06/22 00:59:44;;;;;;;9.13;3.83;;;15.10;99.90;;;;;;5024768;28;20205;-73
2021/06/22 01:02:10;;;;;;;4.88;3.03;;;15.10;99.90;;;;;;5022404;28;20236;-73
2021/06/22 01:04:36;;;;;;;4.60;2.83;;;15.10;99.90;;;;;;5022895;28;20213;-73
2021/06/22 01:07:04;;;;;;;7.20;3.03;;;15.10;99.90;;;;;;5023044;28;20201;-73
2021/06/22 01:09:30;;;;;;;6.40;3.15;;;15.10;99.90;;;;;;5022684;28;20300;-73
2021/06/22 01:12:00;;;;;;;5.80;3.03;;;15.00;99.90;;;;;;5025358;28;20248;-73
2021/06/22 01:14:27;;;;;;;6.95;3.50;;;15.00;99.90;;;;;;5019085;28;20198;-73
2021/06/22 01:16:54;;;;;;;5.40;3.45;;;15.00;99.90;;;;;;5020777;28;20218;-72
2021/06/22 01:19:20;;;;;;;6.05;3.60;;;15.00;99.90;;;;;;5020968;28;20683;-73
2021/06/22 01:21:46;;;;;;;7.53;3.42;;;15.00;99.90;;;;;;5024635;28;20679;-72
2021/06/22 01:24:18;;;;;;;5.03;3.70;;;15.00;99.90;;;;;;5022902;28;20653;-73
2021/06/22 01:26:54;;;;;;;4.88;3.38;;;15.00;99.90;;;;;;5023056;28;20298;-73
2021/06/22 01:29:21;;;;;;;4.57;3.55;;;15.00;99.90;;;;;;5024176;28;20212;-73
2021/06/22 01:31:46;;;;;;;9.82;3.85;;;15.00;99.90;;;;;;5017823;28;20288;-73
2021/06/22 01:34:13;;;;;;;6.90;4.10;;;15.00;99.90;;;;;;5022021;28;20253;-73
2021/06/22 01:36:45;;;;;;;5.50;3.25;;;15.00;99.90;;;;;;5020564;28;20301;-73
2021/06/22 01:39:13;;;;;;;9.15;2.88;;;15.10;99.90;;;;;;5018803;28;20194;-73
2021/06/22 01:41:39;;;;;;;6.68;4.45;;;15.10;99.90;;;;;;5018580;28;20230;-73
2021/06/22 01:44:05;;;;;;;8.18;3.60;;;15.10;99.90;;;;;;5020978;28;20843;-73
2021/06/22 01:46:31;;;;;;;7.43;4.00;;;15.10;99.90;;;;;;5019853;28;20224;-73
2021/06/22 01:48:57;;;;;;;5.80;3.55;;;15.10;99.90;;;;;;5020186;28;20202;-73
2021/06/22 01:51:23;;;;;;;4.72;3.50;;;15.10;99.90;;;;;;5019123;28;20202;-73
2021/06/22 01:53:58;;;;;;;13.35;3.60;;;15.10;99.90;;;;;;5020928;28;20194;-72
2021/06/22 01:56:26;;;;;;;10.60;3.85;;;15.00;99.90;;;;;;5013517;28;20205;-72
2021/06/22 01:58:53;;;;;;;6.22;3.65;;;15.00;99.90;;;;;;5022011;28;20194;-72
2021/06/22 02:01:19;;;;;;;5.72;3.28;;;15.10;99.90;;;;;;5016906;28;20190;-72
2021/06/22 02:03:46;;;;;;;4.38;3.35;;;15.00;99.90;;;;;;5017619;28;20727;-72
2021/06/22 02:06:11;;;;;;;6.30;3.33;;;15.00;99.90;;;;;;5021525;28;20628;-72
2021/06/22 02:08:38;;;;;;;5.55;3.65;;;15.00;99.90;;;;;;5022176;28;20424;-72
2021/06/22 02:11:03;;;;;;;9.02;3.75;;;15.10;99.90;;;;;;5024034;28;20208;-72
2021/06/22 02:13:29;;;;;;;4.55;2.90;;;15.10;99.90;;;;;;5023811;28;20194;-72
2021/06/22 02:15:56;;;;;;;5.47;3.20;;;15.10;99.90;;;;;;5024801;28;20214;-72
2021/06/22 02:18:21;;;;;;;4.55;3.05;;;15.10;99.90;;;;;;5024144;28;20198;-73
2021/06/22 02:20:47;;;;;;;6.25;3.35;;;15.10;99.90;;;;;;5024763;28;20500;-73
2021/06/22 02:23:13;;;;;;;6.38;3.35;;;15.10;99.90;;;;;;5022833;28;20197;-72
2021/06/22 02:25:39;;;;;;;4.93;3.35;;;15.10;99.90;;;;;;5024534;28;20194;-73
2021/06/22 02:28:15;;;;;;;6.53;3.55;;;15.10;99.90;;;;;;5026007;28;20199;-73
2021/06/22 02:30:41;;;;;;;11.80;3.20;;;15.00;99.90;;;;;;5023829;28;20762;-73
2021/06/22 02:33:07;;;;;;;5.13;2.80;;;15.00;99.90;;;;;;5023736;28;20218;-73
2021/06/22 02:35:33;;;;;;;5.05;2.90;;;15.00;99.90;;;;;;5023037;28;20200;-73
2021/06/22 02:38:00;;;;;;;7.13;3.10;;;15.00;99.90;;;;;;5025597;28;20186;-73
2021/06/22 02:40:26;;;;;;;6.68;2.85;;;15.00;99.90;;;;;;5015495;28;20676;-73
2021/06/22 02:42:52;;;;;;;8.18;3.47;;;14.90;99.90;;;;;;5024894;28;20190;-73
2021/06/22 02:45:18;;;;;;;7.68;3.08;;;14.90;99.90;;;;;;5024187;28;20241;-73
2021/06/22 02:47:45;;;;;;;8.85;3.35;;;14.90;99.90;;;;;;5023937;28;20676;-73
2021/06/22 02:50:12;;;;;;;4.68;3.10;;;14.90;99.90;;;;;;5023877;28;20573;-73
2021/06/22 02:52:38;;;;;;;7.68;3.15;;;14.80;99.90;;;;;;5023762;28;20232;-73
2021/06/22 02:55:05;;;;;;;6.18;3.55;;;14.80;99.90;;;;;;5023480;28;20582;-73
2021/06/22 02:57:31;;;;;;;5.30;3.13;;;14.80;99.90;;;;;;5022823;28;20206;-73
2021/06/22 02:59:56;;;;;;;6.07;3.40;;;14.80;99.90;;;;;;5024276;28;20201;-73
2021/06/22 03:02:22;;;;;;;8.50;3.38;;;14.80;99.90;;;;;;5022359;28;20249;-73
2021/06/22 03:04:48;;;;;;;6.60;3.25;;;14.80;99.90;;;;;;5025350;28;20964;-73
2021/06/22 03:07:14;;;;;;;8.48;3.50;;;14.80;99.90;;;;;;5023819;28;20206;-73
2021/06/22 03:09:39;;;;;;;4.70;3.35;;;14.80;99.90;;;;;;5021724;28;20210;-73
2021/06/22 03:12:06;;;;;;;5.72;3.30;;;14.80;99.90;;;;;;5021463;28;20202;-72
2021/06/22 03:14:31;;;;;;;4.75;2.97;;;14.80;99.90;;;;;;5023810;28;20214;-73
2021/06/22 03:16:57;;;;;;;6.88;3.42;;;14.80;99.90;;;;;;5023829;28;20214;-73
2021/06/22 03:19:23;;;;;;;7.45;3.55;;;14.80;99.90;;;;;;5020444;28;20525;-73
2021/06/22 03:21:49;;;;;;;4.93;3.58;;;14.80;99.90;;;;;;5024790;28;20812;-73
2021/06/22 03:24:17;;;;;;;5.38;2.70;;;14.80;99.90;;;;;;5024762;28;20202;-73
2021/06/22 03:26:44;;;;;;;7.13;2.70;;;14.80;99.90;;;;;;5023626;28;20208;-73
2021/06/22 03:29:10;;;;;;;6.40;2.80;;;14.80;99.90;;;;;;5024613;28;20691;-72
2021/06/22 03:31:36;;;;;;;7.10;2.72;;;14.80;99.90;;;;;;5023070;28;20197;-73
2021/06/22 03:34:03;;;;;;;5.75;2.70;;;14.80;99.90;;;;;;5021670;28;20202;-72
2021/06/22 03:36:29;;;;;;;4.85;2.90;;;14.80;99.90;;;;;;5022239;28;20214;-72
2021/06/22 03:38:55;;;;;;;6.40;2.95;;;14.80;99.90;;;;;;5019601;28;20202;-72
2021/06/22 03:41:21;;;;;;;4.28;2.78;;;14.80;99.90;;;;;;5023126;28;20255;-72
2021/06/22 03:43:47;;;;;;;7.88;2.70;;;14.80;99.90;;;;;;5021214;28;20532;-73
2021/06/22 03:46:17;;;;;;;4.20;2.65;;;14.80;99.90;;;;;;5021369;28;20198;-73
2021/06/22 03:48:46;;;;;;;3.55;2.50;;;14.80;99.90;;;;;;5025269;28;20209;-73
2021/06/22 03:51:12;;;;;;;4.82;2.83;;;14.80;99.90;;;;;;5022640;28;20213;-73
2021/06/22 03:53:38;;;;;;;7.30;2.83;;;14.90;99.90;;;;;;5022332;28;20198;-73
2021/06/22 03:56:08;;;;;;;8.13;2.38;;;14.80;99.90;;;;;;5020652;28;20210;-73
2021/06/22 03:58:34;;;;;;;2.75;2.30;;;14.80;99.90;;;;;;5022750;28;20197;-72
2021/06/22 04:01:00;;;;;;;5.82;2.40;;;14.80;99.90;;;;;;5018604;28;20281;-73
2021/06/22 04:03:26;;;;;;;7.20;2.40;;;14.80;99.90;;;;;;5019416;28;20635;-72
2021/06/22 04:05:52;;;;;;;3.47;2.30;;;14.80;99.90;;;;;;5021366;28;20206;-72
2021/06/22 04:08:18;;;;;;;4.45;2.35;;;14.80;99.90;;;;;;5020773;28;20217;-73
2021/06/22 04:10:43;;;;;;;4.57;2.35;;;14.80;99.90;;;;;;5023063;28;20549;-73
2021/06/22 04:13:09;;;;;;;6.90;2.45;;;14.80;99.90;;;;;;5023537;28;21118;-72
2021/06/22 04:15:34;;;;;;;3.65;2.15;;;14.80;99.90;;;;;;5021197;28;20670;-73
2021/06/22 04:18:05;;;;;;;6.60;2.30;;;14.80;99.90;;;;;;5018260;28;20194;-74
2021/06/22 04:20:31;;;;;;;5.68;2.10;;;14.80;99.90;;;;;;5015004;28;21009;-73
2021/06/22 04:22:57;;;;;;;11.82;2.10;;;14.70;99.90;;;;;;5020527;28;20202;-73
2021/06/22 04:25:23;;;;;;;5.80;2.10;;;14.80;99.90;;;;;;5019894;28;20198;-74
2021/06/22 04:27:49;;;;;;;7.47;2.10;;;14.70;99.90;;;;;;5019750;28;20297;-73
2021/06/22 04:30:15;;;;;;;5.82;2.30;;;14.80;99.90;;;;;;5019231;28;20209;-74
2021/06/22 04:32:40;;;;;;;6.20;1.98;;;14.80;99.90;;;;;;5019412;28;20210;-73
2021/06/22 04:35:07;;;;;;;6.32;2.13;;;14.80;99.90;;;;;;5019656;28;20953;-73
2021/06/22 04:37:33;;;;;;;5.72;1.90;;;14.80;99.90;;;;;;5021661;28;20206;-73
2021/06/22 04:39:58;;;;;;;4.80;2.10;;;14.80;99.90;;;;;;5021593;28;20205;-72
2021/06/22 04:42:24;;;;;;;3.03;2.20;;;14.80;99.90;;;;;;5019813;28;20292;-74
2021/06/22 04:44:50;;;;;;;5.60;2.40;;;14.90;99.90;;;;;;5007141;28;20620;-73
2021/06/22 04:47:16;;;;;;;3.45;2.00;;;14.80;99.90;;;;;;5016724;28;20206;-72
2021/06/22 04:49:42;;;;;;;2.83;1.88;;;14.80;99.90;;;;;;5019898;28;20255;-73
2021/06/22 04:52:09;;;;;;;4.30;2.47;;;14.80;99.90;;;;;;5019369;28;20268;-72
2021/06/22 04:54:35;;;;;;;12.80;2.72;;;14.80;99.90;;;;;;5018825;28;20194;-72
2021/06/22 04:57:01;;;;;;;6.68;2.33;;;14.80;99.90;;;;;;5017202;28;20287;-73
2021/06/22 04:59:27;;;;;;;3.67;2.00;;;14.80;99.90;;;;;;5017298;28;20289;-73
2021/06/22 05:01:52;;;;;;;3.92;2.30;;;14.80;99.90;;;;;;5020648;28;20776;-73
2021/06/22 05:04:20;;;;;;;4.05;2.17;;;14.90;99.90;;;;;;5017901;28;20237;-72
2021/06/22 05:06:46;;;;;;;3.63;1.85;;;14.90;99.90;;;;;;5016347;28;20204;-72
2021/06/22 05:09:11;;;;;;;3.63;2.28;;;14.90;99.90;;;;;;5017557;28;20202;-72
2021/06/22 05:11:37;;;;;;;3.10;1.90;;;15.00;99.90;;;;;;5014460;28;20296;-73
2021/06/22 05:14:03;;;;;;;2.50;2.00;;;15.00;99.90;;;;;;5012270;28;20225;-74
2021/06/22 05:16:29;;;;;;;2.97;2.30;;;15.00;99.90;;;;;;5018107;28;20985;-73
2021/06/22 05:18:55;;;;;;;4.28;2.10;;;15.00;99.90;;;;;;5006881;28;20194;-72
2021/06/22 05:21:20;;;;;;;2.55;2.03;;;15.00;99.90;;;;;;5019637;28;20206;-73
2021/06/22 05:23:46;;;;;;;2.40;1.90;;;15.10;99.90;;;;;;5017213;28;20207;-73
2021/06/22 05:26:12;;;;;;;1.77;1.67;;;15.20;99.90;;;;;;5018870;28;20198;-73
2021/06/22 05:28:37;;;;;;;4.05;2.10;;;15.30;99.90;;;;;;5019390;28;20209;-73
2021/06/22 05:31:03;;;;;;;2.30;1.88;;;15.30;99.90;;;;;;5019865;28;20237;-73
2021/06/22 05:33:29;;;;;;;5.13;1.92;;;15.40;99.90;;;;;;5021925;28;20221;-73
2021/06/22 05:35:54;;;;;;;3.00;2.20;;;15.40;99.90;;;;;;5019808;28;20656;-73
2021/06/22 05:38:20;;;;;;;7.93;2.33;;;15.50;99.90;;;;;;5020259;28;20703;-73
2021/06/22 05:40:46;;;;;;;4.75;1.90;;;15.50;99.90;;;;;;5020305;28;20202;-73
2021/06/22 05:43:11;;;;;;;2.55;1.45;;;15.50;99.90;;;;;;5023195;28;20194;-74
2021/06/22 05:45:37;;;;;;;3.55;1.80;;;15.60;99.90;;;;;;5023551;28;20656;-74
2021/06/22 05:48:03;;;;;;;2.42;1.83;;;15.60;99.90;;;;;;5027526;28;20948;-74
2021/06/22 05:50:29;;;;;;;2.60;1.90;;;15.70;99.90;;;;;;5019953;28;20205;-74
2021/06/22 05:52:56;;;;;;;2.03;1.70;;;15.70;99.90;;;;;;5027261;28;21091;-73
2021/06/22 05:55:22;;;;;;;5.22;1.88;;;15.70;99.90;;;;;;5022239;28;20229;-73
2021/06/22 05:57:53;;;;;;;5.07;1.77;;;15.70;99.90;;;;;;5024207;28;20242;-74
2021/06/22 06:00:22;;;;;;;2.83;1.80;;;15.70;99.90;;;;;;5020932;28;20194;-75
2021/06/22 06:02:49;;;;;;;3.47;1.90;;;15.70;99.90;;;;;;5025937;28;20250;-74
2021/06/22 06:05:15;;;;;;;3.60;2.03;;;15.70;99.90;;;;;;5023756;28;20225;-73
2021/06/22 06:07:41;;;;;;;3.67;2.08;;;15.80;99.90;;;;;;5024780;28;20198;-73
2021/06/22 06:10:08;;;;;;;3.50;1.92;;;15.80;99.90;;;;;;5024093;28;20206;-72
2021/06/22 06:12:34;;;;;;;4.35;1.80;;;15.80;99.90;;;;;;5026502;28;20552;-74
2021/06/22 06:15:00;;;;;;;3.60;2.00;;;15.90;99.90;;;;;;5021490;28;20194;-73
2021/06/22 06:17:26;;;;;;;2.28;1.70;;;15.90;99.90;;;;;;5024181;28;20216;-74
2021/06/22 06:19:52;;;;;;;8.20;2.00;;;16.00;99.90;;;;;;5024455;28;20190;-73
2021/06/22 06:22:19;;;;;;;3.63;1.65;;;16.00;99.90;;;;;;5017739;28;20231;-73
2021/06/22 06:24:45;;;;;;;2.78;1.80;;;15.90;99.90;;;;;;5019833;28;20668;-73
2021/06/22 06:29:59;;;;;;;2.42;1.70;;;15.90;99.90;;;;;;5024626;28;20302;-72
2021/06/22 06:32:25;;;;;;;5.50;2.10;;;15.90;99.90;;;;;;5022550;28;20213;-74
2021/06/22 06:34:50;;;;;;;3.28;1.92;;;16.00;99.90;;;;;;5026704;28;20206;-74
2021/06/22 06:37:16;;;;;;;3.25;2.03;;;16.10;99.90;;;;;;5023522;28;20206;-74
2021/06/22 06:39:43;;;;;;;1.95;1.75;;;16.20;99.90;;;;;;5023203;28;20201;-75
2021/06/22 06:42:08;;;;;;;3.35;1.80;;;16.30;99.90;;;;;;5022219;28;20556;-74
2021/06/22 06:44:34;;;;;;;4.00;1.75;;;16.40;99.90;;;;;;5023413;28;20202;-73
2021/06/22 06:47:00;;;;;;;4.78;1.85;;;16.50;99.90;;;;;;5018198;28;20199;-73
2021/06/22 06:49:26;;;;;;;3.08;1.80;;;16.70;99.90;;;;;;5019996;28;20257;-73
2021/06/22 06:51:51;;;;;;;2.13;1.65;;;16.80;99.90;;;;;;5024279;28;20209;-74
2021/06/22 06:54:17;;;;;;;5.35;1.75;;;16.70;99.90;;;;;;5035908;28;20237;-73
2021/06/22 06:56:43;;;;;;;1.95;1.65;;;16.80;99.90;;;;;;5020100;28;20268;-73
2021/06/22 06:59:08;;;;;;;2.13;1.65;;;16.90;99.90;;;;;;5020048;28;21020;-74
2021/06/22 07:01:34;;;;;;;1.95;1.55;;;17.00;99.90;;;;;;5024295;28;20571;-73
2021/06/22 07:04:00;;;;;;;1.92;1.60;;;17.00;99.90;;;;;;5039055;28;20252;-74
2021/06/22 07:06:25;;;;;;;1.90;1.50;;;17.00;99.90;;;;;;5032153;28;20207;-73
2021/06/22 07:08:51;;;;;;;4.57;1.70;;;17.20;99.90;;;;;;5019378;28;20218;-74
2021/06/22 07:11:21;;;;;;;2.78;1.80;;;17.30;99.90;;;;;;5024153;28;20795;-74
2021/06/22 07:13:47;;;;;;;2.03;1.55;;;17.30;99.90;;;;;;5020010;28;20724;-73
2021/06/22 07:16:13;;;;;;;3.40;1.67;;;17.20;99.90;;;;;;5019907;28;20668;-74
2021/06/22 07:18:39;;;;;;;2.10;1.40;;;17.10;99.90;;;;;;5018552;28;20198;-73
2021/06/22 07:21:04;;;;;;;6.20;1.90;;;17.00;99.90;;;;;;5018829;28;20715;-73
2021/06/22 07:23:30;;;;;;;2.75;1.70;;;16.90;99.90;;;;;;5021748;28;20195;-73
2021/06/22 07:25:56;;;;;;;3.78;1.65;;;17.00;99.90;;;;;;5018453;28;20676;-74
2021/06/22 07:28:22;;;;;;;2.20;1.50;;;17.00;99.90;;;;;;5014391;28;20325;-74
2021/06/22 07:30:48;;;;;;;2.55;1.75;;;17.00;99.90;;;;;;5019055;28;20216;-74
2021/06/22 07:33:15;;;;;;;3.78;1.67;;;17.10;99.90;;;;;;5023289;28;20206;-75
2021/06/22 07:35:43;;;;;;;7.32;1.90;;;17.20;99.90;;;;;;5022754;28;20304;-75
2021/06/22 07:38:08;;;;;;;1.67;1.58;;;17.20;99.90;;;;;;5021448;28;20226;-75
2021/06/22 07:40:34;;;;;;;5.13;1.85;;;17.20;99.90;;;;;;5013297;28;20647;-75
2021/06/22 07:43:00;;;;;;;3.97;1.65;;;17.20;99.90;;;;;;5019732;28;20297;-74
2021/06/22 07:45:26;;;;;;;4.45;1.60;;;17.30;99.90;;;;;;5020338;28;20194;-74
2021/06/22 07:47:54;;;;;;;2.03;1.63;;;17.30;99.90;;;;;;5022800;28;20202;-75
2021/06/22 07:50:20;;;;;;;1.95;1.45;;;17.20;99.90;;;;;;5020017;28;20210;-74
2021/06/22 07:52:46;;;;;;;2.55;1.60;;;17.20;99.90;;;;;;5023078;28;20198;-74
2021/06/22 07:55:15;;;;;;;1.95;1.30;;;17.30;99.90;;;;;;5014255;28;20198;-73
2021/06/22 07:57:49;;;;;;;1.27;1.17;;;17.40;99.90;;;;;;5019205;28;20210;-74
2021/06/22 08:01:04;;;;;;;3.03;1.50;;;17.60;99.90;;;;;;5016966;28;20254;-73
2021/06/22 08:03:16;;;;;;;2.90;1.55;;;17.60;99.90;;;;;;5022333;28;20226;-73
2021/06/22 08:05:44;;;;;;;1.50;1.30;;;17.70;99.90;;;;;;5020098;28;20192;-74
2021/06/22 08:08:12;;;;;;;1.90;1.40;;;17.80;99.90;;;;;;5021996;28;20294;-75
2021/06/22 08:10:39;;;;;;;4.57;1.50;;;18.10;99.90;;;;;;5019005;28;20295;-74
2021/06/22 08:13:05;;;;;;;1.83;1.40;;;18.30;99.90;;;;;;5018865;28;20199;-75
2021/06/22 08:15:31;;;;;;;1.35;1.25;;;18.40;99.90;;;;;;5017362;28;20195;-76
2021/06/22 08:17:57;;;;;;;3.70;1.40;;;18.50;99.90;;;;;;5017215;28;20248;-74
2021/06/22 08:20:23;;;;;;;2.05;1.40;;;18.50;99.90;;;;;;5022738;28;20202;-75
2021/06/22 08:22:53;;;;;;;3.08;1.33;;;18.70;99.90;;;;;;5018874;28;20217;-75
2021/06/22 08:25:23;;;;;;;2.85;1.50;;;18.60;99.90;;;;;;5019286;28;20221;-74
2021/06/22 08:27:49;;;;;;;1.50;1.33;;;18.70;99.90;;;;;;5021848;28;20281;-76
2021/06/22 08:30:16;;;;;;;2.35;1.05;;;18.70;99.90;;;;;;5016629;28;20210;-73
2021/06/22 08:32:42;;;;;;;1.35;1.25;;;18.80;99.90;;;;;;5015032;28;20205;-74
2021/06/22 08:35:08;;;;;;;4.38;1.30;;;19.10;99.90;;;;;;5018325;28;20206;-75
2021/06/22 08:37:34;;;;;;;1.77;1.38;;;19.30;99.90;;;;;;5021799;28;20829;-75
2021/06/22 08:40:00;;;;;;;2.03;1.30;;;19.00;99.90;;;;;;5019465;28;20201;-73
2021/06/22 08:42:26;;;;;;;1.40;1.30;;;18.80;99.90;;;;;;5022422;28;20198;-75
2021/06/22 08:44:52;;;;;;;2.35;1.42;;;18.70;99.90;;;;;;5020251;28;20520;-75
2021/06/22 08:47:27;;;;;;;4.15;1.50;;;18.60;99.90;;;;;;5022546;28;20205;-76
2021/06/22 08:49:55;;;;;;;1.70;1.30;;;18.60;99.90;;;;;;5037305;28;20220;-74
2021/06/22 08:52:26;;;;;;;1.77;1.30;;;18.50;99.90;;;;;;5019241;28;20202;-75
2021/06/22 08:54:53;;;;;;;2.20;1.67;;;18.60;99.90;;;;;;5017956;28;20705;-74
2021/06/22 08:57:21;;;;;;;1.50;1.30;;;18.60;99.90;;;;;;5019211;28;20210;-74
2021/06/22 08:59:47;;;;;;;4.18;1.50;;;18.50;99.90;;;;;;5019154;28;20194;-75
2021/06/22 09:02:14;;;;;;;2.55;1.67;;;18.50;99.90;;;;;;5017309;28;20924;-75
2021/06/22 09:04:39;;;;;;;3.00;1.58;;;18.50;99.90;;;;;;5021867;28;20969;-75
2021/06/22 09:07:05;;;;;;;3.47;1.30;;;18.50;99.90;;;;;;5021748;28;20209;-74
2021/06/22 09:09:39;;;;;;;2.97;1.60;;;18.40;99.90;;;;;;5017315;28;20212;-75
2021/06/22 09:12:10;;;;;;;2.20;1.70;;;18.40;99.90;;;;;;5024569;28;21050;-73
2021/06/22 09:14:38;;;;;;;2.13;1.50;;;18.40;99.90;;;;;;5021225;28;20289;-73
2021/06/22 09:17:06;;;;;;;7.50;1.60;;;18.50;99.90;;;;;;5025006;28;20289;-73
2021/06/22 09:19:33;;;;;;;2.67;1.60;;;18.40;99.90;;;;;;5027353;28;20224;-75
2021/06/22 09:22:17;;;;;;;3.30;1.55;;;18.40;99.90;;;;;;5020807;28;20236;-77
2021/06/22 09:25:09;;;;;;;2.25;1.48;;;18.30;99.90;;;;;;5024004;28;20795;-74
2021/06/22 09:27:50;;;;;;;1.45;1.30;;;18.20;99.90;;;;;;5022142;28;20293;-76
2021/06/22 09:30:23;;;;;;;2.45;1.48;;;18.40;99.90;;;;;;5018722;28;20434;-75
2021/06/22 09:32:48;;;;;;;5.00;1.30;;;18.30;99.90;;;;;;5021631;28;20629;-78
2021/06/22 09:35:21;;;;;;;2.10;1.60;;;18.10;99.90;;;;;;5015674;28;20280;-79
2021/06/22 09:37:54;;;;;;;3.65;1.20;;;18.00;99.90;;;;;;5021303;28;20778;-76
2021/06/22 09:40:29;;;;;;;4.50;1.40;;;18.20;99.90;;;;;;5024861;28;20676;-76
2021/06/22 09:42:58;;;;;;;1.48;1.10;;;18.20;99.90;;;;;;5027337;28;20202;-75
2021/06/22 09:45:26;;;;;;;1.80;1.20;;;18.00;99.90;;;;;;5025837;28;20542;-75
2021/06/22 09:47:53;;;;;;;1.00;0.90;;;18.00;99.90;;;;;;5032988;28;20222;-76
2021/06/22 09:50:38;;;;;;;0.85;0.77;;;17.90;99.90;;;;;;5023142;28;20237;-74
2021/06/22 09:53:25;;;;;;;3.35;0.90;;;17.60;99.90;;;;;;5026897;28;20205;-76
2021/06/22 09:55:51;;;;;;;5.97;0.93;;;17.50;99.90;;;;;;5024017;28;20277;-75
2021/06/22 09:58:35;;;;;;;1.05;0.85;;;17.40;99.90;;;;;;5025967;28;20198;-75
2021/06/22 10:01:03;;;;;;;0.65;0.65;;;17.50;99.90;;;;;;5024507;28;20201;-74
2021/06/22 10:03:39;;;;;;;4.43;0.80;;;17.40;99.90;;;;;;5024710;28;20236;-75
2021/06/22 10:06:06;;;;;;;0.50;0.50;;;17.50;99.90;;;;;;5022188;28;20285;-74
2021/06/22 10:08:52;;;;;;;0.93;0.63;;;17.50;99.90;;;;;;5022373;28;20206;-75
2021/06/22 10:11:58;;;;;;;0.77;0.52;;;17.30;99.90;;;;;;5021056;28;20206;-74
2021/06/22 10:14:26;;;;;;;4.47;0.68;;;17.20;99.90;;;;;;5004495;28;20199;-74
2021/06/22 10:16:53;;;;;;;1.33;0.60;;;17.20;99.90;;;;;;5003348;28;20222;-77
2021/06/22 10:19:21;;;;;;;1.35;0.60;;;17.30;99.90;;;;;;5004117;28;20261;-75
2021/06/22 10:21:47;;;;;;;1.38;0.60;;;17.30;99.90;;;;;;5003418;28;20227;-76
2021/06/22 10:24:14;;;;;;;0.65;0.50;;;17.40;99.90;;;;;;5004075;28;20202;-76
2021/06/22 10:26:40;;;;;;;0.70;0.60;;;17.40;99.90;;;;;;5007274;28;20195;-80
2021/06/22 10:29:06;;;;;;;2.38;0.60;;;17.40;99.90;;;;;;5004230;28;20211;-73
2021/06/22 10:31:32;;;;;;;3.90;0.60;;;17.50;99.90;;;;;;5002844;28;20203;-74
2021/06/22 10:33:58;;;;;;;1.42;0.65;;;17.50;99.90;;;;;;5004438;28;20203;-75
2021/06/22 10:36:30;;;;;;;0.75;0.50;;;17.40;99.90;;;;;;4988350;28;20215;-75
2021/06/22 10:39:02;;;;;;;3.63;0.60;;;17.20;99.90;;;;;;5003875;28;20203;-76
2021/06/22 10:41:39;;;;;;;2.22;0.93;;;17.00;99.90;;;;;;5003137;28;20215;-75
2021/06/22 10:44:24;;;;;;;0.85;0.57;;;16.80;99.90;;;;;;5002406;28;20968;-74
2021/06/22 10:47:29;;;;;;;0.50;0.50;;;16.90;99.90;;;;;;5002326;28;20230;-75
2021/06/22 10:49:59;;;;;;;0.88;0.60;;;17.10;99.90;;;;;;5022849;28;20213;-72
2021/06/22 10:53:00;;;;;;;0.50;0.50;;;17.40;99.90;;;;;;5018256;28;20289;-73
2021/06/22 10:55:33;;;;;;;2.78;0.60;;;17.30;99.90;;;;;;5019271;28;20306;-72
2021/06/22 10:58:08;;;;;;;5.53;0.60;;;17.20;99.90;;;;;;5020112;28;20210;-71
2021/06/22 11:00:49;;;;;;;2.83;0.70;;;17.20;99.90;;;;;;5021298;28;20214;-72
2021/06/22 11:03:31;;;;;;;1.58;0.65;;;17.30;99.90;;;;;;5021456;28;20222;-73
2021/06/22 11:06:20;;;;;;;1.67;0.77;;;17.20;99.90;;;;;;5021500;28;20283;-73
2021/06/22 11:08:47;;;;;;;1.42;0.70;;;17.10;99.90;;;;;;5023978;28;20190;-72
2021/06/22 11:11:12;;;;;;;0.85;0.60;;;17.30;99.90;;;;;;5023835;28;20194;-73
2021/06/22 11:13:46;;;;;;;7.72;0.80;;;17.50;99.90;;;;;;5019460;28;20830;-75
2021/06/22 11:16:17;;;;;;;1.25;0.70;;;17.60;99.90;;;;;;5025056;28;20210;-77
2021/06/22 11:21:19;;;;;;;2.72;0.90;;;17.60;99.90;;;;;;5027414;28;20306;-77
2021/06/22 11:24:04;;;;;;;2.22;0.70;;;17.40;99.90;;;;;;5022905;28;20275;-78
2021/06/22 11:26:54;;;;;;;2.72;0.73;;;17.20;99.90;;;;;;5016519;28;20213;-77
2021/06/22 11:29:44;;;;;;;1.27;0.60;;;17.20;99.90;;;;;;5018826;28;20202;-74
2021/06/22 11:32:25;;;;;;;3.90;0.82;;;17.30;99.90;;;;;;5021542;28;20261;-76
2021/06/22 11:34:54;;;;;;;5.32;1.20;;;17.50;99.90;;;;;;5026535;28;20211;-78
2021/06/22 11:37:21;;;;;;;0.50;0.50;;;17.50;99.90;;;;;;5018083;28;20313;-77
2021/06/22 11:40:11;;;;;;;2.35;0.60;;;17.60;99.90;;;;;;5026093;28;20198;-78
2021/06/22 11:42:41;;;;;;;0.60;0.60;;;17.60;99.90;;;;;;5020253;28;20264;-80
2021/06/22 11:45:15;;;;;;;0.60;0.52;;;17.60;99.90;;;;;;5020970;28;20203;-77
2021/06/22 11:47:47;;;;;;;1.63;0.73;;;17.50;99.90;;;;;;5024431;28;20189;-80
2021/06/22 11:50:14;;;;;;;1.65;0.70;;;17.30;99.90;;;;;;5018740;28;20197;-78
2021/06/22 11:52:45;;;;;;;2.20;0.50;;;17.30;99.90;;;;;;5021486;28;20251;-72
2021/06/22 11:55:17;;;;;;;1.88;0.60;;;17.40;99.90;;;;;;5024752;28;20233;-76
2021/06/22 11:57:49;;;;;;;1.25;0.80;;;17.60;99.90;;;;;;5019383;28;20710;-77
2021/06/22 12:00:17;;;;;;;0.70;0.70;;;17.90;99.90;;;;;;5018456;28;20232;-81
2021/06/22 12:02:51;;;;;;;2.72;0.70;;;18.00;99.90;;;;;;5026960;28;20307;-77
2021/06/22 12:05:18;;;;;;;2.42;0.50;;;18.00;99.90;;;;;;5022037;28;20958;-77
2021/06/22 12:07:58;;;;;;;0.60;0.60;;;17.60;99.90;;;;;;5022101;28;20888;-74
2021/06/22 12:10:26;;;;;;;3.28;0.90;;;17.50;99.90;;;;;;5021284;28;20587;-77
2021/06/22 12:12:53;;;;;;;2.75;0.68;;;17.40;99.90;;;;;;5018235;28;20270;-79
2021/06/22 12:15:34;;;;;;;0.60;0.60;;;17.20;99.90;;;;;;5024698;28;20197;-79
2021/06/22 12:18:00;;;;;;;3.22;0.50;;;17.10;99.90;;;;;;5019995;28;20218;-79
2021/06/22 12:20:29;;;;;;;0.65;0.63;;;17.10;99.90;;;;;;5018250;28;20197;-79
2021/06/22 12:23:13;;;;;;;2.95;0.88;;;16.80;99.90;;;;;;5015472;28;20203;-79
2021/06/22 12:25:41;;;;;;;2.45;0.70;;;16.80;99.90;;;;;;5033399;28;20212;-78
2021/06/22 12:28:08;;;;;;;3.05;0.60;;;16.90;99.90;;;;;;5023957;28;20206;-77
2021/06/22 12:30:39;;;;;;;0.60;0.60;;;17.00;99.90;;;;;;5015261;28;20723;-77
2021/06/22 12:33:19;;;;;;;0.73;0.50;;;16.90;99.90;;;;;;5021630;28;20237;-77
2021/06/22 12:35:48;;;;;;;1.10;0.60;;;16.80;99.90;;;;;;5022155;28;20198;-80
2021/06/22 12:38:16;;;;;;;1.27;0.70;;;16.70;99.90;;;;;;5017160;28;20206;-76
2021/06/22 12:40:43;;;;;;;0.60;0.60;;;16.70;99.90;;;;;;5021062;28;20206;-72
2021/06/22 12:43:09;;;;;;;3.65;0.70;;;16.80;99.90;;;;;;5020429;28;20232;-76
2021/06/22 12:45:35;;;;;;;1.95;0.60;;;17.10;99.90;;;;;;5018164;28;20203;-77
2021/06/22 12:48:01;;;;;;;5.82;0.95;;;16.90;99.90;;;;;;5021721;28;20202;-77
2021/06/22 12:50:29;;;;;;;2.65;0.63;;;16.80;99.90;;;;;;5016380;28;20207;-79
2021/06/22 12:52:55;;;;;;;1.38;0.60;;;16.50;99.90;;;;;;5020509;28;20201;-76
2021/06/22 12:55:35;;;;;;;3.22;0.60;;;16.60;99.90;;;;;;5031285;28;20209;-77
2021/06/22 12:58:06;;;;;;;7.88;0.70;;;16.40;99.90;;;;;;5022875;28;20229;-77